Time;durP1;ratioP1;P1;durP2;ratioP2;P2;SDS_P1;SDS_P2;PMS_P1;PMS_P2;Temp;Humidity;BMP_temperature;BMP_pressure;BME280_temperature;BME280_humidity;BME280_pressure;Samples;Min_cycle;Max_cycle;Signal;HPM_P1;HPM_P2
2020/12/25 00:02:13;;;;;;;4.82;1.77;;;20.90;99.90;;;;;;4970605;28;20023;-77
2020/12/25 00:04:40;;;;;;;11.52;2.42;;;20.90;99.90;;;;;;4973528;28;20402;-78
2020/12/25 00:07:08;;;;;;;8.60;2.05;;;20.60;99.90;;;;;;4974251;28;20022;-79
2020/12/25 00:09:35;;;;;;;8.13;1.83;;;20.40;99.90;;;;;;4976223;28;20031;-78
2020/12/25 00:12:02;;;;;;;16.70;2.42;;;20.40;99.90;;;;;;4972235;28;20022;-79
2020/12/25 00:14:29;;;;;;;12.55;2.83;;;20.40;99.90;;;;;;4958457;28;20023;-76
2020/12/25 00:16:59;;;;;;;14.07;4.03;;;20.30;99.90;;;;;;4973518;28;20046;-79
2020/12/25 00:19:27;;;;;;;13.40;2.17;;;20.40;99.90;;;;;;4975606;28;20069;-77
2020/12/25 00:21:55;;;;;;;11.40;2.13;;;20.40;99.90;;;;;;4973797;28;20488;-77
2020/12/25 00:24:22;;;;;;;15.35;3.33;;;20.50;99.90;;;;;;4999250;23;20058;-78
2020/12/25 00:26:50;;;;;;;11.77;2.70;;;20.70;99.90;;;;;;4971434;28;20026;-77
2020/12/25 00:29:17;;;;;;;12.82;2.35;;;20.90;99.90;;;;;;4990985;23;20420;-76
2020/12/25 00:31:45;;;;;;;14.60;3.15;;;21.00;99.90;;;;;;4981141;23;20059;-77
2020/12/25 00:34:13;;;;;;;12.27;2.38;;;21.20;99.90;;;;;;4975654;28;20035;-78
2020/12/25 00:36:42;;;;;;;15.02;2.55;;;21.40;99.90;;;;;;4954180;28;20039;-76
2020/12/25 00:39:11;;;;;;;14.63;3.10;;;21.20;99.90;;;;;;4958250;28;20113;-77
2020/12/25 00:41:42;;;;;;;12.85;2.28;;;21.30;99.90;;;;;;4998371;23;20054;-78
2020/12/25 00:44:10;;;;;;;11.68;2.67;;;21.30;99.90;;;;;;4994550;28;20026;-76
2020/12/25 00:46:38;;;;;;;11.32;2.85;;;21.20;99.90;;;;;;4991060;28;20045;-76
2020/12/25 00:49:06;;;;;;;17.48;3.72;;;21.10;99.90;;;;;;4974655;28;20019;-78
2020/12/25 00:51:33;;;;;;;13.45;2.58;;;21.30;99.90;;;;;;4974023;28;20575;-76
2020/12/25 00:54:01;;;;;;;12.32;2.78;;;21.50;99.90;;;;;;4975001;28;20062;-76
2020/12/25 00:56:28;;;;;;;11.45;1.85;;;21.60;99.90;;;;;;4974442;28;20038;-77
2020/12/25 00:58:56;;;;;;;10.75;2.63;;;21.70;99.90;;;;;;4974829;28;20082;-76
2020/12/25 01:01:23;;;;;;;10.35;2.33;;;21.50;99.90;;;;;;4974721;28;20506;-78
2020/12/25 01:03:50;;;;;;;14.30;2.88;;;21.50;99.90;;;;;;4992007;28;20053;-77
2020/12/25 01:06:20;;;;;;;9.50;2.30;;;21.00;99.90;;;;;;4974614;28;20034;-78
2020/12/25 01:08:50;;;;;;;16.20;3.38;;;21.30;99.90;;;;;;4971088;23;20058;-77
2020/12/25 01:11:18;;;;;;;12.35;3.22;;;21.30;99.90;;;;;;4993180;28;20023;-78
2020/12/25 01:13:45;;;;;;;13.45;2.60;;;21.40;99.90;;;;;;4975096;28;20031;-78
2020/12/25 01:16:18;;;;;;;11.25;2.20;;;21.10;99.90;;;;;;4974553;28;20030;-78
2020/12/25 01:18:47;;;;;;;9.88;2.17;;;21.20;99.90;;;;;;4974388;28;20097;-78
2020/12/25 01:21:15;;;;;;;12.32;2.78;;;21.20;99.90;;;;;;4973839;28;20031;-78
2020/12/25 01:23:43;;;;;;;11.13;2.55;;;21.10;99.90;;;;;;4974273;28;20108;-78
2020/12/25 01:26:10;;;;;;;11.90;3.20;;;20.90;99.90;;;;;;4974428;28;20031;-79
2020/12/25 01:28:38;;;;;;;11.40;2.67;;;20.60;99.90;;;;;;4972749;28;20027;-77
2020/12/25 01:31:06;;;;;;;14.50;3.65;;;20.50;99.90;;;;;;4976991;28;20092;-78
2020/12/25 01:33:34;;;;;;;16.15;2.80;;;20.30;99.90;;;;;;4974062;28;20050;-79
2020/12/25 01:36:03;;;;;;;11.75;2.88;;;20.10;99.90;;;;;;4974258;28;20023;-77
2020/12/25 01:38:31;;;;;;;12.68;1.80;;;20.40;99.90;;;;;;4973790;28;20035;-77
2020/12/25 01:40:58;;;;;;;13.00;2.25;;;20.40;99.90;;;;;;4973695;28;20483;-76
2020/12/25 01:43:26;;;;;;;12.38;2.20;;;20.20;99.90;;;;;;4974642;28;20113;-76
2020/12/25 01:45:53;;;;;;;9.98;1.77;;;20.10;99.90;;;;;;4974266;28;20043;-76
2020/12/25 01:48:21;;;;;;;10.82;2.17;;;20.00;99.90;;;;;;4974561;28;20031;-77
2020/12/25 01:50:49;;;;;;;15.20;3.03;;;20.00;99.90;;;;;;4974316;28;20551;-78
2020/12/25 01:53:19;;;;;;;13.75;1.70;;;20.00;99.90;;;;;;4973866;28;20078;-77
2020/12/25 01:55:46;;;;;;;7.50;1.60;;;19.90;99.90;;;;;;4974145;28;20019;-77
2020/12/25 01:58:15;;;;;;;8.90;2.15;;;19.80;99.90;;;;;;4973680;28;20554;-76
2020/12/25 02:00:42;;;;;;;13.30;1.67;;;19.80;99.90;;;;;;4974033;28;20019;-77
2020/12/25 02:03:10;;;;;;;12.00;2.00;;;19.80;99.90;;;;;;4973402;28;20035;-78
2020/12/25 02:05:37;;;;;;;13.65;2.35;;;19.90;99.90;;;;;;4973398;28;20034;-77
2020/12/25 02:08:04;;;;;;;8.00;1.92;;;20.00;99.90;;;;;;4973211;28;20019;-76
2020/12/25 02:10:36;;;;;;;11.80;2.05;;;20.20;99.90;;;;;;4981212;23;20046;-77
2020/12/25 02:13:04;;;;;;;17.23;2.15;;;20.30;99.90;;;;;;4971301;28;20388;-77
2020/12/25 02:15:32;;;;;;;7.72;1.27;;;20.50;99.90;;;;;;4973843;28;20053;-77
2020/12/25 02:18:00;;;;;;;14.07;2.42;;;20.50;99.90;;;;;;4971655;28;20034;-79
2020/12/25 02:20:27;;;;;;;13.18;1.40;;;20.30;99.90;;;;;;4973541;28;20029;-77
2020/12/25 02:22:54;;;;;;;9.88;1.33;;;20.10;99.90;;;;;;4971303;28;20027;-79
2020/12/25 02:25:21;;;;;;;8.52;1.60;;;20.20;99.90;;;;;;4967370;28;20039;-77
2020/12/25 02:27:49;;;;;;;9.00;1.80;;;20.20;99.90;;;;;;4971416;28;20042;-77
2020/12/25 02:30:16;;;;;;;9.07;1.45;;;20.20;99.90;;;;;;4973584;28;20114;-78
2020/12/25 02:32:43;;;;;;;7.95;2.00;;;20.10;99.90;;;;;;4968297;28;20031;-77
2020/12/25 02:35:11;;;;;;;12.73;2.58;;;20.10;99.90;;;;;;4970654;28;20046;-77
2020/12/25 02:37:38;;;;;;;9.30;2.30;;;20.20;99.90;;;;;;4971001;28;20898;-78
2020/12/25 02:40:06;;;;;;;9.00;2.30;;;20.30;99.90;;;;;;4973307;28;20022;-78
2020/12/25 02:42:35;;;;;;;15.05;2.75;;;20.40;99.90;;;;;;4969752;28;20384;-77
2020/12/25 02:45:04;;;;;;;6.45;1.42;;;20.20;99.90;;;;;;4973126;28;20165;-77
2020/12/25 02:47:32;;;;;;;10.02;2.25;;;20.40;99.90;;;;;;4970743;28;20061;-77
2020/12/25 02:49:59;;;;;;;12.25;2.35;;;20.50;99.90;;;;;;4973090;28;20444;-76
2020/12/25 02:52:27;;;;;;;14.88;2.30;;;20.40;99.90;;;;;;4968355;28;20084;-78
2020/12/25 02:54:54;;;;;;;15.00;2.00;;;20.60;99.90;;;;;;4973158;28;20526;-80
2020/12/25 02:57:21;;;;;;;10.00;2.38;;;20.70;99.90;;;;;;4970513;28;20115;-77
2020/12/25 02:59:49;;;;;;;12.32;2.55;;;20.70;99.90;;;;;;4972903;28;20174;-76
2020/12/25 03:02:16;;;;;;;9.90;2.05;;;20.80;99.90;;;;;;4969002;28;20115;-76
2020/12/25 03:04:45;;;;;;;11.80;2.58;;;20.80;99.90;;;;;;4970595;28;20042;-76
2020/12/25 03:07:13;;;;;;;13.32;1.98;;;20.60;99.90;;;;;;4970894;28;20061;-78
2020/12/25 03:09:40;;;;;;;9.05;1.42;;;20.70;99.90;;;;;;4971313;28;20046;-75
2020/12/25 03:12:08;;;;;;;11.82;1.40;;;20.80;99.90;;;;;;4987918;23;20496;-77
2020/12/25 03:14:36;;;;;;;7.53;1.40;;;21.00;99.90;;;;;;5008150;23;20053;-80
2020/12/25 03:17:03;;;;;;;10.00;1.88;;;20.90;99.90;;;;;;4978287;23;20051;-77
2020/12/25 03:19:31;;;;;;;11.20;2.35;;;20.80;99.90;;;;;;4966940;28;20548;-78
2020/12/25 03:21:58;;;;;;;9.90;2.05;;;20.70;99.90;;;;;;4969293;28;20026;-76
2020/12/25 03:24:25;;;;;;;11.57;2.47;;;20.60;99.90;;;;;;4972547;28;20049;-79
2020/12/25 03:26:53;;;;;;;8.80;1.55;;;20.50;99.90;;;;;;4970452;28;20348;-76
2020/12/25 03:29:20;;;;;;;9.68;1.70;;;20.40;99.90;;;;;;4972504;28;20031;-77
2020/12/25 03:31:47;;;;;;;11.75;2.67;;;20.50;99.90;;;;;;4993538;23;20055;-77
2020/12/25 03:34:15;;;;;;;16.10;2.17;;;20.60;99.90;;;;;;4971874;28;20109;-76
2020/12/25 03:36:43;;;;;;;8.48;1.58;;;20.60;99.90;;;;;;4972055;28;20027;-79
2020/12/25 03:39:10;;;;;;;11.38;1.92;;;20.60;99.90;;;;;;4988914;23;20054;-77
2020/12/25 03:41:37;;;;;;;9.40;1.55;;;20.40;99.90;;;;;;4970591;28;20031;-77
2020/12/25 03:44:05;;;;;;;11.32;1.90;;;20.30;99.90;;;;;;4972664;28;20491;-77
2020/12/25 03:46:37;;;;;;;9.43;2.00;;;20.20;99.90;;;;;;4969477;28;20098;-77
2020/12/25 03:49:06;;;;;;;9.80;2.03;;;20.20;99.90;;;;;;4972707;28;20031;-77
2020/12/25 03:51:33;;;;;;;12.20;1.40;;;20.20;99.90;;;;;;4970520;28;20631;-77
2020/12/25 03:54:00;;;;;;;12.25;2.47;;;20.20;99.90;;;;;;4972372;28;20061;-76
2020/12/25 03:56:28;;;;;;;10.05;1.80;;;20.20;99.90;;;;;;4970250;28;20034;-77
2020/12/25 03:58:55;;;;;;;8.68;2.10;;;20.20;99.90;;;;;;4971023;28;20369;-77
2020/12/25 04:01:23;;;;;;;13.48;2.08;;;20.20;99.90;;;;;;4970515;28;20027;-77
2020/12/25 04:03:50;;;;;;;12.10;2.63;;;20.20;99.90;;;;;;4979750;23;20054;-77
2020/12/25 04:06:17;;;;;;;9.32;1.52;;;20.10;99.90;;;;;;4973038;28;20030;-77
2020/12/25 04:08:45;;;;;;;10.82;1.13;;;20.00;99.90;;;;;;4958340;28;20080;-77
2020/12/25 04:11:12;;;;;;;12.68;2.10;;;19.90;99.90;;;;;;4957206;28;20031;-76
2020/12/25 04:13:40;;;;;;;13.82;2.25;;;19.90;99.90;;;;;;4968079;28;20025;-77
2020/12/25 04:16:07;;;;;;;7.55;1.92;;;19.80;99.90;;;;;;4970875;28;20038;-77
2020/12/25 04:18:34;;;;;;;11.82;1.70;;;19.80;99.90;;;;;;4971872;28;20030;-79
2020/12/25 04:21:02;;;;;;;10.93;2.47;;;19.90;99.90;;;;;;4975680;28;20019;-78
2020/12/25 04:23:29;;;;;;;11.07;2.00;;;19.90;99.90;;;;;;4969341;28;20041;-76
2020/12/25 04:25:57;;;;;;;9.55;1.50;;;19.90;99.90;;;;;;4970230;28;20126;-77
2020/12/25 04:28:24;;;;;;;15.50;2.00;;;20.20;99.90;;;;;;4970705;28;20472;-77
2020/12/25 04:30:51;;;;;;;9.80;2.00;;;20.30;99.90;;;;;;4970842;28;20082;-77
2020/12/25 04:33:19;;;;;;;8.63;1.55;;;20.30;99.90;;;;;;4968053;28;20041;-77
2020/12/25 04:35:46;;;;;;;11.77;1.83;;;20.30;99.90;;;;;;4970726;28;20031;-76
2020/12/25 04:38:13;;;;;;;12.52;2.35;;;20.30;99.90;;;;;;4968163;28;20395;-76
2020/12/25 04:40:43;;;;;;;12.18;2.20;;;20.30;99.90;;;;;;4970443;28;20054;-77
2020/12/25 04:43:13;;;;;;;12.38;1.58;;;20.30;99.90;;;;;;4967732;28;20548;-79
2020/12/25 04:45:40;;;;;;;10.40;1.88;;;20.40;99.90;;;;;;4993518;23;20062;-78
2020/12/25 04:48:08;;;;;;;15.50;2.15;;;20.50;99.90;;;;;;4977998;28;20491;-76
2020/12/25 04:50:36;;;;;;;14.30;1.90;;;20.50;99.90;;;;;;4973880;28;20510;-77
2020/12/25 04:53:04;;;;;;;9.25;2.20;;;20.60;99.90;;;;;;4972367;28;20197;-77
2020/12/25 04:55:31;;;;;;;11.73;1.50;;;20.50;99.90;;;;;;4973529;28;20507;-77
2020/12/25 04:57:59;;;;;;;13.55;2.92;;;20.40;99.90;;;;;;4972443;28;20022;-77
2020/12/25 05:00:27;;;;;;;12.88;2.47;;;20.60;99.90;;;;;;4973601;28;20027;-76
2020/12/25 05:02:55;;;;;;;12.30;2.05;;;20.70;99.90;;;;;;4973556;28;20031;-76
2020/12/25 05:05:30;;;;;;;10.93;1.80;;;20.50;99.90;;;;;;4973145;28;20542;-77
2020/12/25 05:08:01;;;;;;;14.32;1.42;;;20.20;99.90;;;;;;4972989;28;21034;-77
2020/12/25 05:10:29;;;;;;;10.43;2.03;;;20.20;99.90;;;;;;4976684;28;20041;-76
2020/12/25 05:12:56;;;;;;;11.32;1.27;;;20.20;99.90;;;;;;4972617;28;20027;-77
2020/12/25 05:15:25;;;;;;;11.00;1.63;;;20.00;99.90;;;;;;4972088;28;20077;-77
2020/12/25 05:17:56;;;;;;;14.35;1.70;;;20.00;99.90;;;;;;4973636;28;20479;-77
2020/12/25 05:20:24;;;;;;;12.82;2.20;;;20.00;99.90;;;;;;4993682;28;20545;-80
2020/12/25 05:23:09;;;;;;;9.98;1.42;;;19.90;99.90;;;;;;4974661;28;20424;-78
2020/12/25 05:25:35;;;;;;;;;;;19.80;99.90;;;;;;4974708;28;20101;-79
2020/12/25 05:28:12;;;;;;;11.25;1.45;;;19.80;99.90;;;;;;4979639;28;19910;-81
2020/12/25 05:30:44;;;;;;;11.02;1.38;;;19.70;99.90;;;;;;4981848;28;20088;-79
2020/12/25 05:33:14;;;;;;;8.70;1.95;;;19.60;99.90;;;;;;4972231;28;20023;-79
2020/12/25 05:35:42;;;;;;;11.05;1.83;;;19.60;99.90;;;;;;4973773;28;20357;-79
2020/12/25 05:38:12;;;;;;;10.40;2.20;;;19.60;99.90;;;;;;4974223;28;20038;-79
2020/12/25 05:40:43;;;;;;;9.20;1.83;;;19.60;99.90;;;;;;4974257;28;20114;-79
2020/12/25 05:43:15;;;;;;;10.52;1.98;;;19.60;99.90;;;;;;4974001;28;20476;-79
2020/12/25 05:45:43;;;;;;;10.88;1.85;;;19.50;99.90;;;;;;4990141;23;20055;-80
2020/12/25 05:48:11;;;;;;;8.95;1.92;;;19.50;99.90;;;;;;4995032;23;20053;-78
2020/12/25 05:50:40;;;;;;;10.65;1.75;;;19.40;99.90;;;;;;4973358;28;20046;-79
2020/12/25 05:53:08;;;;;;;10.50;2.08;;;19.40;99.90;;;;;;4979393;23;20070;-79
2020/12/25 05:55:37;;;;;;;9.85;2.00;;;19.50;99.90;;;;;;4973854;28;20038;-80
2020/12/25 05:58:06;;;;;;;8.13;1.17;;;19.50;99.90;;;;;;4972273;28;20026;-79
2020/12/25 06:00:34;;;;;;;10.98;1.45;;;19.40;99.90;;;;;;4968773;28;20037;-79
2020/12/25 06:03:01;;;;;;;10.27;1.90;;;19.40;99.90;;;;;;4979125;23;20051;-80
2020/12/25 06:05:29;;;;;;;20.10;2.60;;;19.40;99.90;;;;;;4971032;28;20030;-79
2020/12/25 06:07:57;;;;;;;12.25;1.65;;;19.40;99.90;;;;;;4971585;28;20030;-79
2020/12/25 06:10:27;;;;;;;9.07;1.55;;;19.40;99.90;;;;;;4970578;28;20431;-82
2020/12/25 06:12:56;;;;;;;11.40;3.03;;;19.30;99.90;;;;;;4969269;28;20118;-80
2020/12/25 06:15:35;;;;;;;15.50;3.15;;;19.30;99.90;;;;;;4969027;28;20113;-78
2020/12/25 06:18:03;;;;;;;11.80;1.70;;;19.30;99.90;;;;;;4982127;23;20038;-78
2020/12/25 06:20:35;;;;;;;14.38;3.22;;;19.30;99.90;;;;;;4966733;28;20049;-81
2020/12/25 06:23:04;;;;;;;13.82;2.75;;;19.30;99.90;;;;;;4969038;28;20134;-80
2020/12/25 06:25:32;;;;;;;7.53;1.40;;;19.40;99.90;;;;;;4959206;28;20495;-80
2020/12/25 06:28:01;;;;;;;13.48;2.85;;;19.50;99.90;;;;;;4968407;28;20022;-80
2020/12/25 06:30:30;;;;;;;7.03;1.13;;;19.40;99.90;;;;;;4964777;28;20492;-80
2020/12/25 06:32:58;;;;;;;14.55;2.13;;;19.50;99.90;;;;;;4962166;28;20408;-78
2020/12/25 06:35:35;;;;;;;10.77;2.22;;;19.50;99.90;;;;;;4950986;29;20026;-83
2020/12/25 06:38:21;;;;;;;8.85;1.77;;;19.50;99.90;;;;;;4965719;28;20132;-79
2020/12/25 06:40:49;;;;;;;13.85;2.10;;;19.50;99.90;;;;;;4973295;28;20031;-80
2020/12/25 06:43:21;;;;;;;11.88;1.98;;;19.50;99.90;;;;;;4966951;28;20055;-79
2020/12/25 06:46:01;;;;;;;11.30;2.10;;;19.50;99.90;;;;;;4967960;28;20046;-81
2020/12/25 06:48:30;;;;;;;10.80;1.80;;;19.50;99.90;;;;;;4968721;28;20027;-80
2020/12/25 06:51:02;;;;;;;16.65;2.85;;;19.50;99.90;;;;;;4973022;28;20046;-80
2020/12/25 06:53:43;;;;;;;9.88;2.10;;;19.60;99.90;;;;;;4989081;23;20160;-83
2020/12/25 06:56:12;;;;;;;9.52;2.35;;;19.50;99.90;;;;;;4978039;28;20023;-81
2020/12/25 06:58:48;;;;;;;15.88;2.67;;;19.50;99.90;;;;;;4977519;28;20118;-79
2020/12/25 07:01:37;;;;;;;13.05;2.55;;;19.50;99.90;;;;;;4970560;28;20023;-79
2020/12/25 07:04:05;;;;;;;11.60;1.45;;;19.60;99.90;;;;;;4971459;28;20057;-81
2020/12/25 07:06:33;;;;;;;10.40;3.53;;;19.60;99.90;;;;;;4978388;28;20097;-81
2020/12/25 07:09:11;;;;;;;12.15;5.22;;;19.60;99.90;;;;;;4955193;28;20030;-81
2020/12/25 07:11:39;;;;;;;13.70;4.13;;;19.70;99.90;;;;;;4978170;28;20031;-81
2020/12/25 07:14:09;;;;;;;17.13;4.88;;;19.70;99.90;;;;;;4971916;28;20090;-84
2020/12/25 07:16:37;;;;;;;18.40;8.27;;;19.60;99.90;;;;;;4972076;28;20027;-80
2020/12/25 07:19:05;;;;;;;10.60;5.22;;;19.60;99.90;;;;;;4970917;28;20026;-87
2020/12/25 07:21:32;;;;;;;11.57;6.57;;;19.50;99.90;;;;;;4971009;28;20391;-80
2020/12/25 07:24:00;;;;;;;11.65;3.42;;;19.50;99.90;;;;;;4971865;28;20027;-83
2020/12/25 07:26:28;;;;;;;14.43;3.60;;;19.50;99.90;;;;;;4979385;28;20122;-80
2020/12/25 07:28:57;;;;;;;7.57;1.90;;;19.50;99.90;;;;;;4970922;28;20026;-81
2020/12/25 07:31:24;;;;;;;15.15;4.82;;;19.40;99.90;;;;;;4961140;28;20562;-85
2020/12/25 07:33:58;;;;;;;17.23;6.82;;;19.50;99.90;;;;;;4972331;28;20022;-77
2020/12/25 07:36:25;;;;;;;14.02;4.43;;;19.50;99.90;;;;;;4972146;28;20030;-78
2020/12/25 07:39:04;;;;;;;15.65;3.58;;;19.50;99.90;;;;;;4975015;28;20075;-79
2020/12/25 07:41:32;;;;;;;12.57;5.93;;;19.60;99.90;;;;;;4975437;28;20054;-81
2020/12/25 07:44:00;;;;;;;17.63;3.10;;;19.50;99.90;;;;;;4975611;28;20026;-79
2020/12/25 07:46:27;;;;;;;15.32;3.92;;;19.40;99.90;;;;;;4983825;28;20024;-79
2020/12/25 07:49:01;;;;;;;7.63;1.40;;;19.40;99.90;;;;;;4986704;28;20035;-78
2020/12/25 07:51:29;;;;;;;6.57;1.42;;;19.30;99.90;;;;;;4988126;28;20042;-77
2020/12/25 07:53:58;;;;;;;13.85;1.92;;;19.20;99.90;;;;;;5004071;23;20145;-78
2020/12/25 07:56:31;;;;;;;9.55;3.15;;;19.20;99.90;;;;;;4985227;23;20038;-79
2020/12/25 07:58:58;;;;;;;7.35;2.40;;;19.20;99.90;;;;;;4991295;28;20019;-78
2020/12/25 08:01:28;;;;;;;11.93;1.30;;;19.10;99.90;;;;;;4996612;23;20050;-78
2020/12/25 08:03:58;;;;;;;10.68;3.67;;;19.10;99.90;;;;;;4994596;28;20022;-78
2020/12/25 08:06:27;;;;;;;10.93;2.20;;;19.00;99.90;;;;;;4995479;28;20035;-79
2020/12/25 08:08:59;;;;;;;14.50;3.40;;;19.00;99.90;;;;;;4971841;23;20036;-82
2020/12/25 08:11:28;;;;;;;13.18;2.83;;;19.00;99.90;;;;;;4975911;28;20035;-79
2020/12/25 08:14:10;;;;;;;12.13;2.22;;;19.00;99.90;;;;;;4975456;28;20034;-78
2020/12/25 08:16:39;;;;;;;7.18;1.90;;;19.00;99.90;;;;;;4975090;28;20062;-79
2020/12/25 08:19:07;;;;;;;10.65;3.15;;;18.90;99.90;;;;;;4974174;28;20034;-79
2020/12/25 08:21:37;;;;;;;15.88;3.83;;;18.90;99.90;;;;;;4975578;28;20023;-81
2020/12/25 08:24:05;;;;;;;11.40;3.20;;;18.90;99.90;;;;;;4974740;28;20177;-79
2020/12/25 08:26:38;;;;;;;9.65;2.20;;;18.90;99.90;;;;;;4992180;23;20047;-79
2020/12/25 08:29:07;;;;;;;12.27;2.40;;;18.90;99.90;;;;;;4975534;28;20023;-80
2020/12/25 08:31:39;;;;;;;13.45;2.95;;;18.90;99.90;;;;;;4975278;28;20439;-78
2020/12/25 08:34:13;;;;;;;9.50;2.10;;;18.90;99.90;;;;;;4974729;28;20027;-79
2020/12/25 08:36:40;;;;;;;;;;;18.90;99.90;;;;;;4975333;28;20045;-78
2020/12/25 08:39:08;;;;;;;9.63;2.30;;;18.90;99.90;;;;;;4952631;28;19917;-79
2020/12/25 08:41:36;;;;;;;9.25;2.38;;;18.90;99.90;;;;;;4971525;28;20051;-78
2020/12/25 08:44:13;;;;;;;8.25;2.20;;;19.00;99.90;;;;;;4964606;28;20467;-77
2020/12/25 08:46:43;;;;;;;11.45;3.10;;;18.90;99.90;;;;;;4974915;28;20121;-78
2020/12/25 08:49:11;;;;;;;9.88;2.58;;;19.00;99.90;;;;;;4973572;28;20030;-79
2020/12/25 08:51:39;;;;;;;9.77;3.50;;;19.00;99.90;;;;;;4974556;28;20034;-77
2020/12/25 08:54:06;;;;;;;10.82;2.53;;;19.00;99.90;;;;;;4960718;28;20027;-78
2020/12/25 08:56:36;;;;;;;9.50;2.40;;;19.00;99.90;;;;;;4974600;28;20045;-79
2020/12/25 08:59:08;;;;;;;9.55;2.00;;;18.90;99.90;;;;;;4982578;23;20081;-77
2020/12/25 09:01:38;;;;;;;8.05;1.48;;;18.90;99.90;;;;;;4974817;28;20027;-78
2020/12/25 09:04:15;;;;;;;11.02;2.33;;;18.90;99.90;;;;;;4974034;28;20027;-77
2020/12/25 09:06:43;;;;;;;8.77;1.80;;;18.90;99.90;;;;;;4974683;28;20041;-77
2020/12/25 09:09:10;;;;;;;15.15;2.75;;;18.80;99.90;;;;;;4974219;28;20114;-77
2020/12/25 09:11:38;;;;;;;15.32;3.60;;;18.90;99.90;;;;;;4974417;28;20448;-78
2020/12/25 09:14:06;;;;;;;11.95;3.50;;;18.90;99.90;;;;;;4973338;28;20030;-79
2020/12/25 09:16:33;;;;;;;9.90;1.40;;;18.90;99.90;;;;;;4974274;28;20015;-78
2020/12/25 09:19:00;;;;;;;12.57;3.58;;;18.90;99.90;;;;;;4974540;28;20110;-80
2020/12/25 09:21:28;;;;;;;12.70;2.20;;;18.90;99.90;;;;;;4973651;28;20035;-79
2020/12/25 09:23:56;;;;;;;14.90;2.90;;;18.90;99.90;;;;;;4974200;28;20097;-78
2020/12/25 09:26:24;;;;;;;10.93;2.13;;;18.90;99.90;;;;;;4974224;28;20114;-78
2020/12/25 09:28:51;;;;;;;13.50;1.90;;;18.90;99.90;;;;;;4974191;28;20035;-79
2020/12/25 09:31:18;;;;;;;10.25;3.45;;;18.80;99.90;;;;;;4974568;28;20026;-79
2020/12/25 09:33:45;;;;;;;9.60;2.55;;;18.80;99.90;;;;;;4974216;28;20022;-79
2020/12/25 09:36:13;;;;;;;9.40;2.10;;;18.90;99.90;;;;;;4968919;28;20054;-78
2020/12/25 09:38:45;;;;;;;8.60;1.92;;;18.80;99.90;;;;;;4973034;28;20026;-78
2020/12/25 09:41:13;;;;;;;9.55;1.67;;;18.80;99.90;;;;;;4973917;28;20069;-78
2020/12/25 09:43:41;;;;;;;8.93;1.58;;;18.80;99.90;;;;;;4973545;28;20026;-78
2020/12/25 09:46:09;;;;;;;22.92;3.97;;;18.80;99.90;;;;;;4973811;28;20532;-77
2020/12/25 09:48:37;;;;;;;12.02;1.98;;;18.80;99.90;;;;;;4973937;28;20050;-77
2020/12/25 09:51:04;;;;;;;12.52;2.72;;;18.80;99.90;;;;;;4973325;28;20035;-77
2020/12/25 09:53:31;;;;;;;12.85;2.92;;;18.90;99.90;;;;;;4972225;28;20102;-78
2020/12/25 09:55:59;;;;;;;15.00;2.50;;;18.90;99.90;;;;;;4973870;28;20089;-76
2020/12/25 09:58:26;;;;;;;13.02;2.13;;;18.90;99.90;;;;;;4973779;28;20031;-78
2020/12/25 10:00:53;;;;;;;13.07;1.95;;;18.80;99.90;;;;;;4988245;23;20031;-77
2020/12/25 10:03:21;;;;;;;10.05;1.77;;;18.90;99.90;;;;;;4983285;23;20042;-77
2020/12/25 10:05:48;;;;;;;12.27;1.65;;;18.90;99.90;;;;;;4955847;28;20400;-77
2020/12/25 10:08:15;;;;;;;14.75;2.63;;;18.90;99.90;;;;;;5000925;23;20526;-78
2020/12/25 10:10:42;;;;;;;12.70;2.17;;;18.80;99.90;;;;;;4993272;28;20037;-77
2020/12/25 10:13:10;;;;;;;10.38;1.52;;;18.90;99.90;;;;;;4985463;28;20102;-78
2020/12/25 10:15:37;;;;;;;9.55;1.55;;;18.90;99.90;;;;;;4955849;28;20023;-77
2020/12/25 10:18:04;;;;;;;10.98;1.30;;;18.90;99.90;;;;;;4986874;23;20445;-78
2020/12/25 10:20:32;;;;;;;10.02;1.45;;;18.90;99.90;;;;;;4977245;28;20165;-77
2020/12/25 10:22:59;;;;;;;9.85;2.00;;;19.00;99.90;;;;;;4982101;28;20352;-78
2020/12/25 10:25:26;;;;;;;9.60;1.67;;;19.00;99.90;;;;;;4992625;28;20038;-78
2020/12/25 10:27:54;;;;;;;11.45;1.60;;;19.00;99.90;;;;;;4976994;28;20035;-77
2020/12/25 10:30:21;;;;;;;14.45;1.90;;;19.00;99.90;;;;;;4975912;28;20113;-78
2020/12/25 10:32:48;;;;;;;10.02;1.60;;;19.00;99.90;;;;;;4963052;23;20054;-77
2020/12/25 10:35:15;;;;;;;6.70;1.17;;;19.00;99.90;;;;;;4965820;28;20031;-79
2020/12/25 10:37:43;;;;;;;12.80;1.98;;;19.00;99.90;;;;;;4972738;28;20023;-78
2020/12/25 10:40:10;;;;;;;9.65;1.52;;;19.00;99.90;;;;;;4956321;28;20019;-78
2020/12/25 10:42:37;;;;;;;10.05;1.77;;;19.00;99.90;;;;;;4953570;28;20094;-78
2020/12/25 10:45:04;;;;;;;11.13;1.63;;;19.00;99.90;;;;;;4953419;28;20046;-78
2020/12/25 10:47:32;;;;;;;11.95;1.50;;;19.00;99.90;;;;;;4971906;28;20042;-78
2020/12/25 10:49:59;;;;;;;9.45;2.03;;;19.10;99.90;;;;;;4965365;28;20038;-78
2020/12/25 10:52:26;;;;;;;11.20;1.33;;;19.00;99.90;;;;;;4958779;28;20030;-78
2020/12/25 10:54:53;;;;;;;12.32;1.88;;;19.00;99.90;;;;;;4961992;28;20097;-78
2020/12/25 10:57:21;;;;;;;6.20;1.10;;;18.90;99.90;;;;;;4972732;28;20031;-78
2020/12/25 10:59:50;;;;;;;10.73;2.10;;;18.90;99.90;;;;;;4960440;28;20023;-78
2020/12/25 11:02:18;;;;;;;10.35;1.45;;;18.90;99.90;;;;;;4953487;29;20065;-78
2020/12/25 11:04:45;;;;;;;12.90;1.55;;;18.90;99.90;;;;;;4936004;29;20513;-78
2020/12/25 11:07:12;;;;;;;9.20;2.15;;;18.90;99.90;;;;;;4987798;23;20059;-78
2020/12/25 11:09:40;;;;;;;10.20;1.25;;;18.90;99.90;;;;;;4955312;28;20535;-78
2020/12/25 11:12:07;;;;;;;9.25;1.35;;;18.80;99.90;;;;;;4955309;28;20034;-77
2020/12/25 11:14:34;;;;;;;10.45;1.95;;;18.80;99.90;;;;;;4970231;28;20492;-77
2020/12/25 11:17:01;;;;;;;7.57;1.35;;;18.80;99.90;;;;;;4959796;28;20066;-77
2020/12/25 11:19:29;;;;;;;13.93;1.40;;;18.70;99.90;;;;;;4973297;28;20062;-77
2020/12/25 11:21:56;;;;;;;16.27;1.88;;;18.60;99.90;;;;;;4978951;28;20026;-77
2020/12/25 11:24:23;;;;;;;7.70;1.27;;;18.70;99.90;;;;;;4973145;28;20496;-77
2020/12/25 11:26:50;;;;;;;11.45;2.17;;;18.70;99.90;;;;;;4964373;28;20035;-77
2020/12/25 11:29:18;;;;;;;10.23;1.58;;;18.60;99.90;;;;;;4976957;28;20023;-78
2020/12/25 11:31:45;;;;;;;6.20;0.88;;;18.60;99.90;;;;;;4975177;28;20027;-79
2020/12/25 11:34:13;;;;;;;7.55;1.75;;;18.60;99.90;;;;;;4970411;28;20032;-78
2020/12/25 11:36:40;;;;;;;15.05;1.67;;;18.60;99.90;;;;;;4976605;28;20030;-79
2020/12/25 11:39:07;;;;;;;8.45;1.27;;;18.60;99.90;;;;;;4978733;28;20027;-79
2020/12/25 11:41:35;;;;;;;12.75;1.80;;;18.60;99.90;;;;;;4976368;28;20030;-79
2020/12/25 11:44:02;;;;;;;9.88;1.85;;;18.50;99.90;;;;;;4978718;28;20023;-79
2020/12/25 11:46:30;;;;;;;12.70;1.55;;;18.50;99.90;;;;;;4977792;28;20039;-78
2020/12/25 11:48:57;;;;;;;9.82;2.47;;;18.50;99.90;;;;;;4962950;28;20019;-78
2020/12/25 11:51:27;;;;;;;13.15;2.50;;;18.60;99.90;;;;;;4959442;28;20506;-78
2020/12/25 11:53:55;;;;;;;6.15;1.98;;;18.60;99.90;;;;;;4959537;29;20028;-78
2020/12/25 11:56:30;;;;;;;9.60;1.45;;;18.60;99.90;;;;;;4954823;28;20118;-78
2020/12/25 11:59:02;;;;;;;11.43;1.83;;;18.70;99.90;;;;;;4978093;28;20407;-79
2020/12/25 12:01:30;;;;;;;14.35;2.20;;;18.70;99.90;;;;;;4964146;28;20180;-79
2020/12/25 12:03:57;;;;;;;14.98;1.42;;;18.70;99.90;;;;;;4959429;28;20027;-79
2020/12/25 12:06:25;;;;;;;8.65;1.73;;;18.80;99.90;;;;;;4968110;23;20043;-78
2020/12/25 12:08:54;;;;;;;11.05;1.10;;;18.80;99.90;;;;;;4996591;23;20077;-78
2020/12/25 12:11:21;;;;;;;7.20;1.05;;;18.80;99.90;;;;;;4994995;23;20113;-78
2020/12/25 12:13:48;;;;;;;10.10;1.48;;;18.70;99.90;;;;;;4978561;28;20033;-78
2020/12/25 12:16:26;;;;;;;11.40;2.35;;;18.70;99.90;;;;;;4985683;23;20085;-78
2020/12/25 12:18:56;;;;;;;10.48;2.25;;;18.70;99.90;;;;;;4971991;28;20051;-78
2020/12/25 12:21:25;;;;;;;6.78;1.85;;;18.70;99.90;;;;;;4946658;28;20105;-78
2020/12/25 12:23:53;;;;;;;13.07;1.52;;;18.70;99.90;;;;;;4984518;23;20157;-78
2020/12/25 12:26:20;;;;;;;6.03;1.65;;;18.80;99.90;;;;;;4975177;28;20038;-78
2020/12/25 12:28:48;;;;;;;9.30;1.73;;;18.70;99.90;;;;;;4975073;28;20027;-78
2020/12/25 12:31:15;;;;;;;8.48;1.25;;;18.50;99.90;;;;;;4974605;28;20035;-78
2020/12/25 12:33:42;;;;;;;11.85;2.60;;;18.50;99.90;;;;;;4974912;28;20038;-77
2020/12/25 12:36:10;;;;;;;8.32;1.55;;;18.40;99.90;;;;;;4974610;28;20065;-78
2020/12/25 12:38:37;;;;;;;8.23;1.40;;;18.30;99.90;;;;;;4974985;28;20088;-78
2020/12/25 12:41:04;;;;;;;10.32;2.00;;;18.30;99.90;;;;;;4982496;23;20043;-78
2020/12/25 12:43:32;;;;;;;10.77;1.63;;;18.30;99.90;;;;;;4975661;28;20110;-78
2020/12/25 12:45:59;;;;;;;10.55;1.77;;;18.30;99.90;;;;;;4960080;28;20093;-78
2020/12/25 12:48:26;;;;;;;13.15;1.40;;;18.20;99.90;;;;;;4974961;28;20395;-78